Albuquerque, NM

4:14 AM MDT on September 23, 2014 (GMT -0600)
UNM Area West | Change Station
CLOSE
Current Station
Personal Weather Station
Location: Albuquerque, NM
Elevation: 5133 ft
Nearby Weather Stations

Elev 5133 ft 35.09 °N, 106.63 °W | Updated 9 seconds ago

Partly Cloudy
Partly Cloudy
62.9 °F
Feels Like 62.9 °F
N
1.0
Wind Variable Wind from ESE
Gusts 4.0 mph

Today
High -- | Low -- °F
--% Chance of Precip.
Yesterday
High -- | Low -- °F
Precip. -- in
6:55 AM 7:01 PM
Waning Crescent, 1% visible
Pressure 30.04 in
Visibility 10.0 miles
Clouds Few 1000 ft
Few 3500 ft
Scattered Clouds 14000 ft
Dew Point 56 °F
Humidity 79%
Rainfall 0.00 in
Snow Depth 1 in , 0 in , 0 in
UV 0 out of 12
Pollen 1.80 out of 12
Air Quality Not available.
Flu Activity Not available.
METAR KABQ 230952Z 13006KT 10SM FEW010 FEW035 SCT140 16/13 A3025 RMK AO2 SLP171 MTNS OBSC NE-SE T01610133

More Conditions Fewer Conditions

Pressure 30.04 in
Visibility 10.0 miles
Clouds Few 1000 ft
Few 3500 ft
Scattered Clouds 14000 ft
Dew Point 56 °F
Humidity 79%
Rainfall 0.00 in
Snow Depth 1 in , 0 in , 0 in
UV 0 out of 12
Pollen 1.80 out of 12
Air Quality Not available.
Flu Activity Not available.
METAR KABQ 230952Z 13006KT 10SM FEW010 FEW035 SCT140 16/13 A3025 RMK AO2 SLP171 MTNS OBSC NE-SE T01610133

More Conditions Fewer Conditions

10-Day Weather Forecast

Almanac

Astronomy

Sep. 23, 2014 Rise Set
Actual Time 6:55 AM MDT 7:01 PM MDT
Civil Twilight 6:30 AM MDT 7:27 PM MDT
Nautical Twilight 6:00 AM MDT 7:56 PM MDT
Astronomical Twilight 5:30 AM MDT 8:26 PM MDT
Moon 6:22 AM MDT 6:42 PM MDT
Length of Visible Light 12h 57m
Length of Day
12h 06m
Tomorrow will be 2m 11s shorter.
Waning Crescent, 1% of the Moon is Illuminated
Today
Waning Crescent
Sep 24
New
Oct 1
First Quarter
Oct 8
Full
Oct 15
Last Quarter

Today's Extremes

State Highs State Lows

Community

WunderPhotos

Upload Photos

1,755,645 photos uploaded!

Nearby

Snow Depth

Station Depth Elevation
Red River Pass #2 0 in 9850 ft
North Costilla 1 in 10600 ft
Sierra Blanca 0 in 10280 ft
Senorita Divide #2 0 in 8600 ft
Silver Creek Divide 1 in 9000 ft

Earthquake Activity

City Distance Mag. Time & Date
No recent earthquake activity has been reported nearby.
Minimum magnitude displayed is 2.5.

Coastal Water Temperatures

Place Temperature
No Stations Reporting

Nearby Weather Stations